sensor_id;sensor_type;location;lat;lon;timestamp;pressure;altitude;pressure_sealevel;temperature;humidity
81155;BME280;70631;50.436;7.826;2023-08-30T00:00:38;98459.00;;;15.48;72.80
81155;BME280;70631;50.436;7.826;2023-08-30T00:03:03;98465.22;;;15.48;72.81
81155;BME280;70631;50.436;7.826;2023-08-30T00:05:29;98471.41;;;15.49;73.06
81155;BME280;70631;50.436;7.826;2023-08-30T00:07:54;98468.53;;;15.50;72.77
81155;BME280;70631;50.436;7.826;2023-08-30T00:10:19;98464.00;;;15.51;72.82
81155;BME280;70631;50.436;7.826;2023-08-30T00:12:45;98472.69;;;15.53;72.84
81155;BME280;70631;50.436;7.826;2023-08-30T00:15:10;98468.97;;;15.54;73.26
81155;BME280;70631;50.436;7.826;2023-08-30T00:17:35;98469.41;;;15.57;72.94
81155;BME280;70631;50.436;7.826;2023-08-30T00:20:00;98469.88;;;15.61;72.42
81155;BME280;70631;50.436;7.826;2023-08-30T00:22:26;98469.88;;;15.61;72.59
81155;BME280;70631;50.436;7.826;2023-08-30T00:24:52;98467.19;;;15.61;72.51
81155;BME280;70631;50.436;7.826;2023-08-30T00:27:17;98467.56;;;15.58;72.50
81155;BME280;70631;50.436;7.826;2023-08-30T00:29:43;98460.38;;;15.58;72.69
81155;BME280;70631;50.436;7.826;2023-08-30T00:32:08;98464.50;;;15.61;72.83
81155;BME280;70631;50.436;7.826;2023-08-30T00:34:33;98463.69;;;15.61;72.84
81155;BME280;70631;50.436;7.826;2023-08-30T00:36:58;98462.50;;;15.63;72.49
81155;BME280;70631;50.436;7.826;2023-08-30T00:39:24;98463.53;;;15.62;72.82
81155;BME280;70631;50.436;7.826;2023-08-30T00:41:49;98456.28;;;15.63;72.60
81155;BME280;70631;50.436;7.826;2023-08-30T00:44:15;98452.59;;;15.64;72.79
81155;BME280;70631;50.436;7.826;2023-08-30T00:46:40;98453.59;;;15.63;72.56
81155;BME280;70631;50.436;7.826;2023-08-30T00:49:06;98449.69;;;15.65;72.33
81155;BME280;70631;50.436;7.826;2023-08-30T00:51:32;98452.19;;;15.67;72.68
81155;BME280;70631;50.436;7.826;2023-08-30T00:53:59;98445.72;;;15.61;72.65
81155;BME280;70631;50.436;7.826;2023-08-30T00:56:26;98446.38;;;15.63;72.80
81155;BME280;70631;50.436;7.826;2023-08-30T00:58:52;98444.25;;;15.58;72.92
81155;BME280;70631;50.436;7.826;2023-08-30T01:01:18;98440.91;;;15.56;72.89
81155;BME280;70631;50.436;7.826;2023-08-30T01:03:43;98440.06;;;15.56;73.00
81155;BME280;70631;50.436;7.826;2023-08-30T01:06:09;98447.50;;;15.54;72.92
81155;BME280;70631;50.436;7.826;2023-08-30T01:08:35;98438.81;;;15.52;73.18
81155;BME280;70631;50.436;7.826;2023-08-30T01:11:22;98447.41;;;15.41;73.07
81155;BME280;70631;50.436;7.826;2023-08-30T01:14:18;98434.72;;;15.35;73.26
81155;BME280;70631;50.436;7.826;2023-08-30T01:16:44;98436.38;;;15.36;73.65
81155;BME280;70631;50.436;7.826;2023-08-30T01:19:38;98428.84;;;15.24;73.52
81155;BME280;70631;50.436;7.826;2023-08-30T01:22:19;98424.50;;;15.23;73.84
81155;BME280;70631;50.436;7.826;2023-08-30T01:25:04;98427.84;;;15.25;74.01
81155;BME280;70631;50.436;7.826;2023-08-30T01:27:35;98434.88;;;15.26;74.28
81155;BME280;70631;50.436;7.826;2023-08-30T01:30:02;98432.31;;;15.18;74.62
81155;BME280;70631;50.436;7.826;2023-08-30T01:32:28;98440.53;;;15.17;75.11
81155;BME280;70631;50.436;7.826;2023-08-30T01:34:55;98437.00;;;15.16;74.87
81155;BME280;70631;50.436;7.826;2023-08-30T01:37:22;98435.75;;;15.12;74.96
81155;BME280;70631;50.436;7.826;2023-08-30T01:39:49;98435.09;;;15.10;75.05
81155;BME280;70631;50.436;7.826;2023-08-30T01:42:14;98426.03;;;15.11;75.05
81155;BME280;70631;50.436;7.826;2023-08-30T01:44:41;98423.53;;;15.10;75.33
81155;BME280;70631;50.436;7.826;2023-08-30T01:47:10;98420.66;;;15.11;75.04
81155;BME280;70631;50.436;7.826;2023-08-30T01:49:36;98408.72;;;15.14;75.28
81155;BME280;70631;50.436;7.826;2023-08-30T01:52:03;98406.03;;;15.14;75.20
81155;BME280;70631;50.436;7.826;2023-08-30T01:54:29;98406.63;;;15.09;75.29
81155;BME280;70631;50.436;7.826;2023-08-30T01:56:55;98403.28;;;15.07;75.46
81155;BME280;70631;50.436;7.826;2023-08-30T01:59:20;98397.69;;;15.02;75.31
81155;BME280;70631;50.436;7.826;2023-08-30T02:01:45;98404.72;;;15.03;75.39
81155;BME280;70631;50.436;7.826;2023-08-30T02:04:11;98401.81;;;15.05;75.66
81155;BME280;70631;50.436;7.826;2023-08-30T02:06:44;98399.34;;;15.03;75.30
81155;BME280;70631;50.436;7.826;2023-08-30T02:09:18;98405.72;;;15.02;75.68
81155;BME280;70631;50.436;7.826;2023-08-30T02:11:47;98393.34;;;15.01;75.45
81155;BME280;70631;50.436;7.826;2023-08-30T02:14:15;98398.31;;;15.04;75.45
81155;BME280;70631;50.436;7.826;2023-08-30T02:16:43;98397.88;;;15.01;75.85
81155;BME280;70631;50.436;7.826;2023-08-30T02:19:09;98398.81;;;14.93;76.19
81155;BME280;70631;50.436;7.826;2023-08-30T02:21:36;98404.38;;;14.91;76.50
81155;BME280;70631;50.436;7.826;2023-08-30T02:24:02;98399.91;;;14.98;76.37
81155;BME280;70631;50.436;7.826;2023-08-30T02:26:27;98398.31;;;15.04;75.68
81155;BME280;70631;50.436;7.826;2023-08-30T02:28:53;98402.28;;;15.08;75.94
81155;BME280;70631;50.436;7.826;2023-08-30T02:31:18;98402.91;;;15.10;75.85
81155;BME280;70631;50.436;7.826;2023-08-30T02:33:43;98405.19;;;15.13;75.83
81155;BME280;70631;50.436;7.826;2023-08-30T02:36:08;98403.75;;;15.11;75.83
81155;BME280;70631;50.436;7.826;2023-08-30T02:38:34;98410.97;;;15.10;75.85
81155;BME280;70631;50.436;7.826;2023-08-30T02:40:59;98400.88;;;15.12;75.86
81155;BME280;70631;50.436;7.826;2023-08-30T02:43:24;98400.88;;;15.12;75.96
81155;BME280;70631;50.436;7.826;2023-08-30T02:45:49;98401.88;;;15.11;75.62
81155;BME280;70631;50.436;7.826;2023-08-30T02:48:16;98401.25;;;15.09;75.52
81155;BME280;70631;50.436;7.826;2023-08-30T02:50:41;98401.25;;;15.09;75.72
81155;BME280;70631;50.436;7.826;2023-08-30T02:53:07;98411.97;;;15.09;75.46
81155;BME280;70631;50.436;7.826;2023-08-30T02:55:35;98405.16;;;15.07;75.80
81155;BME280;70631;50.436;7.826;2023-08-30T02:58:00;98413.13;;;15.00;75.97
81155;BME280;70631;50.436;7.826;2023-08-30T03:00:26;98410.00;;;14.96;75.97
81155;BME280;70631;50.436;7.826;2023-08-30T03:02:51;98418.22;;;14.95;76.00
81155;BME280;70631;50.436;7.826;2023-08-30T03:05:17;98407.50;;;14.95;75.64
81155;BME280;70631;50.436;7.826;2023-08-30T03:07:42;98404.38;;;14.91;75.54
81155;BME280;70631;50.436;7.826;2023-08-30T03:10:08;98394.41;;;14.85;76.06
81155;BME280;70631;50.436;7.826;2023-08-30T03:12:34;98393.97;;;14.82;76.21
81155;BME280;70631;50.436;7.826;2023-08-30T03:14:59;98391.22;;;14.75;76.20
81155;BME280;70631;50.436;7.826;2023-08-30T03:17:24;98390.09;;;14.70;76.00
81155;BME280;70631;50.436;7.826;2023-08-30T03:19:51;98392.53;;;14.64;76.14
81155;BME280;70631;50.436;7.826;2023-08-30T03:22:18;98392.91;;;14.61;75.97
81155;BME280;70631;50.436;7.826;2023-08-30T03:24:43;98386.28;;;14.57;76.03
81155;BME280;70631;50.436;7.826;2023-08-30T03:27:08;98392.34;;;14.51;76.57
81155;BME280;70631;50.436;7.826;2023-08-30T03:29:34;98385.09;;;14.45;76.80
81155;BME280;70631;50.436;7.826;2023-08-30T03:31:59;98383.97;;;14.40;76.74
81155;BME280;70631;50.436;7.826;2023-08-30T03:34:24;98390.72;;;14.35;76.84
81155;BME280;70631;50.436;7.826;2023-08-30T03:36:49;98390.72;;;14.35;76.76
81155;BME280;70631;50.436;7.826;2023-08-30T03:39:19;98392.56;;;14.35;76.55
81155;BME280;70631;50.436;7.826;2023-08-30T03:41:44;98383.06;;;14.32;76.51
81155;BME280;70631;50.436;7.826;2023-08-30T03:44:10;98388.56;;;14.31;76.52
81155;BME280;70631;50.436;7.826;2023-08-30T03:46:36;98386.47;;;14.26;76.54
81155;BME280;70631;50.436;7.826;2023-08-30T03:49:01;98392.38;;;14.22;76.74
81155;BME280;70631;50.436;7.826;2023-08-30T03:51:28;98384.53;;;14.20;76.57
81155;BME280;70631;50.436;7.826;2023-08-30T03:53:54;98392.31;;;14.15;76.38
81155;BME280;70631;50.436;7.826;2023-08-30T03:56:21;98401.25;;;14.07;76.97
81155;BME280;70631;50.436;7.826;2023-08-30T03:58:46;98396.47;;;14.03;76.89
81155;BME280;70631;50.436;7.826;2023-08-30T04:01:11;98394.97;;;14.00;77.10
81155;BME280;70631;50.436;7.826;2023-08-30T04:03:37;98396.81;;;14.00;76.75
81155;BME280;70631;50.436;7.826;2023-08-30T04:06:02;98403.00;;;14.00;76.88
81155;BME280;70631;50.436;7.826;2023-08-30T04:08:27;98397.66;;;14.00;76.68
81155;BME280;70631;50.436;7.826;2023-08-30T04:10:53;98403.00;;;14.00;77.02
81155;BME280;70631;50.436;7.826;2023-08-30T04:13:18;98398.88;;;13.98;76.91
81155;BME280;70631;50.436;7.826;2023-08-30T04:15:44;98394.06;;;13.93;76.78
81155;BME280;70631;50.436;7.826;2023-08-30T04:18:09;98395.28;;;13.91;76.90
81155;BME280;70631;50.436;7.826;2023-08-30T04:20:34;98392.28;;;13.86;76.81
81155;BME280;70631;50.436;7.826;2023-08-30T04:23:00;98392.19;;;13.79;76.81
81155;BME280;70631;50.436;7.826;2023-08-30T04:25:29;98390.09;;;13.74;77.09
81155;BME280;70631;50.436;7.826;2023-08-30T04:27:55;98389.63;;;13.71;77.27
81155;BME280;70631;50.436;7.826;2023-08-30T04:30:20;98384.97;;;13.65;77.37
81155;BME280;70631;50.436;7.826;2023-08-30T04:32:46;98396.69;;;13.64;77.72
81155;BME280;70631;50.436;7.826;2023-08-30T04:35:12;98392.34;;;13.63;77.72
81155;BME280;70631;50.436;7.826;2023-08-30T04:37:37;98395.69;;;13.65;77.55
81155;BME280;70631;50.436;7.826;2023-08-30T04:40:06;98390.34;;;13.65;77.61
81155;BME280;70631;50.436;7.826;2023-08-30T04:42:33;98391.00;;;13.67;77.42
81155;BME280;70631;50.436;7.826;2023-08-30T04:44:58;98388.47;;;13.65;77.40
81155;BME280;70631;50.436;7.826;2023-08-30T04:47:26;98384.16;;;13.64;77.75
81155;BME280;70631;50.436;7.826;2023-08-30T04:49:51;98384.97;;;13.65;77.49
81155;BME280;70631;50.436;7.826;2023-08-30T04:52:17;98391.16;;;13.65;77.68
81155;BME280;70631;50.436;7.826;2023-08-30T04:54:42;98387.66;;;13.65;77.34
81155;BME280;70631;50.436;7.826;2023-08-30T04:57:08;98386.19;;;13.62;77.54
81155;BME280;70631;50.436;7.826;2023-08-30T04:59:33;98398.09;;;13.60;77.39
81155;BME280;70631;50.436;7.826;2023-08-30T05:01:58;98390.25;;;13.58;77.65
81155;BME280;70631;50.436;7.826;2023-08-30T05:04:24;98388.38;;;13.59;77.40
81155;BME280;70631;50.436;7.826;2023-08-30T05:06:49;98381.19;;;13.59;77.68
81155;BME280;70631;50.436;7.826;2023-08-30T05:09:15;98379.34;;;13.60;77.58
81155;BME280;70631;50.436;7.826;2023-08-30T05:11:40;98378.50;;;13.59;77.77
81155;BME280;70631;50.436;7.826;2023-08-30T05:14:05;98373.63;;;13.63;77.58
81155;BME280;70631;50.436;7.826;2023-08-30T05:16:31;98376.78;;;13.66;77.51
81155;BME280;70631;50.436;7.826;2023-08-30T05:18:56;98384.09;;;13.72;77.63
81155;BME280;70631;50.436;7.826;2023-08-30T05:21:21;98382.69;;;13.76;77.71
81155;BME280;70631;50.436;7.826;2023-08-30T05:23:46;98382.31;;;13.80;77.24
81155;BME280;70631;50.436;7.826;2023-08-30T05:26:12;98379.84;;;13.78;77.55
81155;BME280;70631;50.436;7.826;2023-08-30T05:28:38;98374.47;;;13.78;78.04
81155;BME280;70631;50.436;7.826;2023-08-30T05:31:03;98375.38;;;13.85;77.32
81155;BME280;70631;50.436;7.826;2023-08-30T05:33:29;98374.69;;;13.91;77.37
81155;BME280;70631;50.436;7.826;2023-08-30T05:35:54;98368.56;;;13.97;77.06
81155;BME280;70631;50.436;7.826;2023-08-30T05:38:19;98369.84;;;14.01;77.22
81155;BME280;70631;50.436;7.826;2023-08-30T05:40:44;98365.78;;;14.05;76.89
81155;BME280;70631;50.436;7.826;2023-08-30T05:43:10;98368.75;;;14.11;76.83
81155;BME280;70631;50.436;7.826;2023-08-30T05:45:36;98366.34;;;14.16;76.93
81155;BME280;70631;50.436;7.826;2023-08-30T05:48:02;98363.94;;;14.21;76.38
81155;BME280;70631;50.436;7.826;2023-08-30T05:50:28;98362.53;;;14.25;76.58
81155;BME280;70631;50.436;7.826;2023-08-30T05:52:53;98367.13;;;14.31;76.46
81155;BME280;70631;50.436;7.826;2023-08-30T05:55:18;98366.16;;;14.32;76.30
81155;BME280;70631;50.436;7.826;2023-08-30T05:57:44;98371.56;;;14.38;76.20
81155;BME280;70631;50.436;7.826;2023-08-30T06:00:10;98373.97;;;14.48;76.02
81155;BME280;70631;50.436;7.826;2023-08-30T06:02:35;98369.88;;;14.67;75.96
81155;BME280;70631;50.436;7.826;2023-08-30T06:05:01;98368.56;;;14.78;75.50
81155;BME280;70631;50.436;7.826;2023-08-30T06:07:27;98363.44;;;14.83;75.06
81155;BME280;70631;50.436;7.826;2023-08-30T06:09:52;98365.25;;;14.97;74.76
81155;BME280;70631;50.436;7.826;2023-08-30T06:12:18;98364.22;;;15.19;74.29
81155;BME280;70631;50.436;7.826;2023-08-30T06:14:43;98369.78;;;15.46;73.49
81155;BME280;70631;50.436;7.826;2023-08-30T06:17:14;98371.19;;;15.63;73.42
81155;BME280;70631;50.436;7.826;2023-08-30T06:19:41;98362.19;;;16.12;72.11
81155;BME280;70631;50.436;7.826;2023-08-30T06:22:06;98364.31;;;16.77;70.93
81155;BME280;70631;50.436;7.826;2023-08-30T06:24:32;98367.72;;;17.39;69.62
81155;BME280;70631;50.436;7.826;2023-08-30T06:26:57;98360.19;;;17.94;68.19
81155;BME280;70631;50.436;7.826;2023-08-30T06:29:24;98361.72;;;18.35;66.85
81155;BME280;70631;50.436;7.826;2023-08-30T06:31:50;98348.75;;;18.70;65.64
81155;BME280;70631;50.436;7.826;2023-08-30T06:34:15;98349.31;;;19.10;64.45
81155;BME280;70631;50.436;7.826;2023-08-30T06:36:40;98345.97;;;19.39;63.81
81155;BME280;70631;50.436;7.826;2023-08-30T06:39:05;98353.16;;;19.77;63.03
81155;BME280;70631;50.436;7.826;2023-08-30T06:41:31;98348.19;;;20.10;61.60
81155;BME280;70631;50.436;7.826;2023-08-30T06:43:56;98350.00;;;20.35;61.21
81155;BME280;70631;50.436;7.826;2023-08-30T06:46:22;98346.34;;;20.48;59.50
81155;BME280;70631;50.436;7.826;2023-08-30T06:48:47;98349.09;;;20.59;59.11
81155;BME280;70631;50.436;7.826;2023-08-30T06:51:13;98348.25;;;20.59;58.41
81155;BME280;70631;50.436;7.826;2023-08-30T06:53:38;98347.84;;;20.62;58.48
81155;BME280;70631;50.436;7.826;2023-08-30T06:56:03;98345.75;;;20.75;58.29
81155;BME280;70631;50.436;7.826;2023-08-30T06:58:29;98343.97;;;20.69;57.90
81155;BME280;70631;50.436;7.826;2023-08-30T07:00:57;98351.97;;;20.46;58.05
81155;BME280;70631;50.436;7.826;2023-08-30T07:03:22;98352.69;;;20.35;58.55
81155;BME280;70631;50.436;7.826;2023-08-30T07:05:47;98351.81;;;20.23;58.62
81155;BME280;70631;50.436;7.826;2023-08-30T07:08:15;98346.78;;;20.08;59.01
81155;BME280;70631;50.436;7.826;2023-08-30T07:10:41;98344.00;;;19.96;59.50
81155;BME280;70631;50.436;7.826;2023-08-30T07:13:06;98350.91;;;20.29;59.16
81155;BME280;70631;50.436;7.826;2023-08-30T07:15:36;98347.63;;;20.45;58.50
81155;BME280;70631;50.436;7.826;2023-08-30T07:18:01;98344.56;;;20.71;57.45
81155;BME280;70631;50.436;7.826;2023-08-30T07:20:27;98338.88;;;21.03;56.64
81155;BME280;70631;50.436;7.826;2023-08-30T07:22:52;98335.69;;;21.36;56.12
81155;BME280;70631;50.436;7.826;2023-08-30T07:25:17;98333.94;;;21.77;55.72
81155;BME280;70631;50.436;7.826;2023-08-30T07:27:43;98331.06;;;22.30;54.32
81155;BME280;70631;50.436;7.826;2023-08-30T07:32:33;98327.78;;;23.13;52.55
81155;BME280;70631;50.436;7.826;2023-08-30T07:34:59;98327.63;;;23.54;51.37
81155;BME280;70631;50.436;7.826;2023-08-30T07:37:25;98332.38;;;23.97;50.36
81155;BME280;70631;50.436;7.826;2023-08-30T07:39:51;98332.06;;;24.54;49.52
81155;BME280;70631;50.436;7.826;2023-08-30T07:42:16;98331.66;;;24.94;48.62
81155;BME280;70631;50.436;7.826;2023-08-30T07:44:42;98329.69;;;25.43;47.13
81155;BME280;70631;50.436;7.826;2023-08-30T07:47:07;98326.22;;;25.85;46.81
81155;BME280;70631;50.436;7.826;2023-08-30T07:49:32;98314.81;;;26.51;44.74
81155;BME280;70631;50.436;7.826;2023-08-30T07:51:57;98319.06;;;27.04;43.88
81155;BME280;70631;50.436;7.826;2023-08-30T07:54:23;98317.97;;;27.46;43.26
81155;BME280;70631;50.436;7.826;2023-08-30T07:56:48;98323.41;;;27.96;41.71
81155;BME280;70631;50.436;7.826;2023-08-30T07:59:13;98317.53;;;28.39;40.63
81155;BME280;70631;50.436;7.826;2023-08-30T08:01:38;98316.56;;;28.74;40.50
81155;BME280;70631;50.436;7.826;2023-08-30T08:04:04;98310.66;;;29.01;39.76
81155;BME280;70631;50.436;7.826;2023-08-30T08:06:29;98308.28;;;29.28;39.07
81155;BME280;70631;50.436;7.826;2023-08-30T08:08:54;98309.19;;;29.53;38.49
81155;BME280;70631;50.436;7.826;2023-08-30T08:11:20;98307.41;;;29.67;37.85
81155;BME280;70631;50.436;7.826;2023-08-30T08:13:45;98310.34;;;29.75;37.78
81155;BME280;70631;50.436;7.826;2023-08-30T08:16:10;98305.75;;;29.95;37.44
81155;BME280;70631;50.436;7.826;2023-08-30T08:18:36;98308.09;;;30.30;37.15
81155;BME280;70631;50.436;7.826;2023-08-30T08:21:01;98310.88;;;30.73;36.64
81155;BME280;70631;50.436;7.826;2023-08-30T08:23:26;98307.16;;;31.20;35.99
81155;BME280;70631;50.436;7.826;2023-08-30T08:25:57;98306.31;;;31.71;35.26
81155;BME280;70631;50.436;7.826;2023-08-30T08:28:22;98307.94;;;32.18;34.32
81155;BME280;70631;50.436;7.826;2023-08-30T08:30:48;98303.34;;;32.41;33.82
81155;BME280;70631;50.436;7.826;2023-08-30T08:33:16;98306.25;;;32.72;33.43
81155;BME280;70631;50.436;7.826;2023-08-30T08:35:42;98308.31;;;32.80;32.79
81155;BME280;70631;50.436;7.826;2023-08-30T08:38:07;98300.13;;;33.11;32.57
81155;BME280;70631;50.436;7.826;2023-08-30T08:40:37;98300.66;;;33.58;32.72
81155;BME280;70631;50.436;7.826;2023-08-30T08:43:03;98295.03;;;33.94;31.50
81155;BME280;70631;50.436;7.826;2023-08-30T08:45:32;98289.94;;;34.19;31.38
81155;BME280;70631;50.436;7.826;2023-08-30T08:47:59;98294.28;;;34.59;30.78
81155;BME280;70631;50.436;7.826;2023-08-30T08:50:25;98293.00;;;34.17;31.51
81155;BME280;70631;50.436;7.826;2023-08-30T08:52:51;98295.53;;;32.85;32.89
81155;BME280;70631;50.436;7.826;2023-08-30T08:55:18;98298.97;;;31.34;34.90
81155;BME280;70631;50.436;7.826;2023-08-30T08:57:44;98308.88;;;30.12;36.83
81155;BME280;70631;50.436;7.826;2023-08-30T09:00:10;98305.78;;;29.32;38.03
81155;BME280;70631;50.436;7.826;2023-08-30T09:02:36;98305.69;;;28.53;39.16
81155;BME280;70631;50.436;7.826;2023-08-30T09:05:02;98305.91;;;27.92;39.35
81155;BME280;70631;50.436;7.826;2023-08-30T09:07:30;98306.50;;;27.38;38.83
81155;BME280;70631;50.436;7.826;2023-08-30T09:09:56;98310.00;;;26.93;39.94
81155;BME280;70631;50.436;7.826;2023-08-30T09:12:21;98306.94;;;26.69;39.13
81155;BME280;70631;50.436;7.826;2023-08-30T09:14:55;98301.00;;;27.69;38.78
81155;BME280;70631;50.436;7.826;2023-08-30T09:17:20;98304.59;;;27.64;38.38
81155;BME280;70631;50.436;7.826;2023-08-30T09:19:46;98309.44;;;26.96;38.63
81155;BME280;70631;50.436;7.826;2023-08-30T09:22:11;98308.13;;;27.80;38.03
81155;BME280;70631;50.436;7.826;2023-08-30T09:24:38;98308.06;;;27.95;38.15
81155;BME280;70631;50.436;7.826;2023-08-30T09:27:04;98302.56;;;29.19;35.97
81155;BME280;70631;50.436;7.826;2023-08-30T09:29:29;98302.41;;;29.98;34.52
81155;BME280;70631;50.436;7.826;2023-08-30T09:31:55;98301.41;;;30.18;33.67
81155;BME280;70631;50.436;7.826;2023-08-30T09:34:27;98297.13;;;30.73;33.56
81155;BME280;70631;50.436;7.826;2023-08-30T09:36:53;98292.75;;;31.42;32.88
81155;BME280;70631;50.436;7.826;2023-08-30T09:39:19;98287.06;;;31.85;32.44
81155;BME280;70631;50.436;7.826;2023-08-30T09:41:48;98286.56;;;32.24;31.38
81155;BME280;70631;50.436;7.826;2023-08-30T09:44:17;98282.72;;;31.51;31.09
81155;BME280;70631;50.436;7.826;2023-08-30T09:46:49;98283.19;;;31.40;31.49
81155;BME280;70631;50.436;7.826;2023-08-30T09:49:14;98281.53;;;30.87;32.65
81155;BME280;70631;50.436;7.826;2023-08-30T09:51:41;98272.41;;;29.54;34.24
81155;BME280;70631;50.436;7.826;2023-08-30T09:54:14;98269.91;;;28.24;36.74
81155;BME280;70631;50.436;7.826;2023-08-30T09:56:40;98279.13;;;27.03;38.75
81155;BME280;70631;50.436;7.826;2023-08-30T09:59:06;98280.94;;;26.62;39.45
81155;BME280;70631;50.436;7.826;2023-08-30T10:01:31;98283.47;;;26.06;41.12
81155;BME280;70631;50.436;7.826;2023-08-30T10:03:57;98272.63;;;25.69;41.62
81155;BME280;70631;50.436;7.826;2023-08-30T10:06:24;98279.25;;;25.46;41.92
81155;BME280;70631;50.436;7.826;2023-08-30T10:08:52;98264.28;;;26.58;40.81
81155;BME280;70631;50.436;7.826;2023-08-30T10:11:18;98257.50;;;27.67;38.43
81155;BME280;70631;50.436;7.826;2023-08-30T10:13:44;98244.66;;;28.38;37.04
81155;BME280;70631;50.436;7.826;2023-08-30T10:16:15;98238.06;;;28.83;36.25
81155;BME280;70631;50.436;7.826;2023-08-30T10:18:46;98247.91;;;29.57;35.16
81155;BME280;70631;50.436;7.826;2023-08-30T10:21:12;98234.94;;;30.34;34.23
81155;BME280;70631;50.436;7.826;2023-08-30T10:23:38;98250.03;;;30.56;33.46
81155;BME280;70631;50.436;7.826;2023-08-30T10:26:05;98229.91;;;30.79;32.39
81155;BME280;70631;50.436;7.826;2023-08-30T10:28:32;98230.88;;;30.88;32.91
81155;BME280;70631;50.436;7.826;2023-08-30T10:30:59;98229.75;;;31.08;31.97
81155;BME280;70631;50.436;7.826;2023-08-30T10:33:24;98228.00;;;31.12;31.50
81155;BME280;70631;50.436;7.826;2023-08-30T10:35:51;98225.84;;;31.28;30.81
81155;BME280;70631;50.436;7.826;2023-08-30T10:38:27;98226.69;;;31.42;31.88
81155;BME280;70631;50.436;7.826;2023-08-30T10:40:53;98228.19;;;31.95;31.62
81155;BME280;70631;50.436;7.826;2023-08-30T10:43:28;98229.00;;;32.36;30.60
81155;BME280;70631;50.436;7.826;2023-08-30T10:46:05;98226.69;;;32.52;29.21
81155;BME280;70631;50.436;7.826;2023-08-30T10:48:40;98229.72;;;32.42;29.28
81155;BME280;70631;50.436;7.826;2023-08-30T10:51:19;98230.38;;;32.61;29.24
81155;BME280;70631;50.436;7.826;2023-08-30T10:53:57;98223.16;;;32.74;28.99
81155;BME280;70631;50.436;7.826;2023-08-30T10:56:30;98213.44;;;32.90;27.58
81155;BME280;70631;50.436;7.826;2023-08-30T10:58:56;98208.44;;;32.78;28.00
81155;BME280;70631;50.436;7.826;2023-08-30T11:01:22;98205.47;;;32.75;28.27
81155;BME280;70631;50.436;7.826;2023-08-30T11:03:49;98208.06;;;32.71;28.30
81155;BME280;70631;50.436;7.826;2023-08-30T11:06:15;98198.44;;;33.05;27.40
81155;BME280;70631;50.436;7.826;2023-08-30T11:08:42;98199.31;;;32.92;28.11
81155;BME280;70631;50.436;7.826;2023-08-30T11:11:08;98201.59;;;32.54;28.11
81155;BME280;70631;50.436;7.826;2023-08-30T11:13:35;98198.91;;;32.62;28.73
81155;BME280;70631;50.436;7.826;2023-08-30T11:16:01;98185.22;;;32.57;28.42
81155;BME280;70631;50.436;7.826;2023-08-30T11:18:29;98194.91;;;32.18;29.05
81155;BME280;70631;50.436;7.826;2023-08-30T11:20:59;98193.88;;;31.46;29.24
81155;BME280;70631;50.436;7.826;2023-08-30T11:23:25;98187.13;;;31.06;29.91
81155;BME280;70631;50.436;7.826;2023-08-30T11:25:51;98193.28;;;30.84;30.45
81155;BME280;70631;50.436;7.826;2023-08-30T11:28:22;98198.53;;;30.42;31.20
81155;BME280;70631;50.436;7.826;2023-08-30T11:30:47;98198.63;;;30.37;31.92
81155;BME280;70631;50.436;7.826;2023-08-30T11:33:12;98200.78;;;30.40;31.66
81155;BME280;70631;50.436;7.826;2023-08-30T11:35:38;98194.53;;;30.16;31.49
81155;BME280;70631;50.436;7.826;2023-08-30T11:38:03;98206.56;;;29.72;31.30
81155;BME280;70631;50.436;7.826;2023-08-30T11:40:29;98199.00;;;29.01;32.20
81155;BME280;70631;50.436;7.826;2023-08-30T11:42:54;98200.97;;;28.56;32.98
81155;BME280;70631;50.436;7.826;2023-08-30T11:45:19;98205.94;;;27.95;34.16
81155;BME280;70631;50.436;7.826;2023-08-30T11:47:45;98195.66;;;27.51;35.26
81155;BME280;70631;50.436;7.826;2023-08-30T11:50:10;98193.25;;;27.34;35.89
81155;BME280;70631;50.436;7.826;2023-08-30T11:52:37;98191.06;;;27.11;35.64
81155;BME280;70631;50.436;7.826;2023-08-30T11:55:04;98198.97;;;26.87;37.27
81155;BME280;70631;50.436;7.826;2023-08-30T11:57:33;98192.16;;;27.05;36.99
81155;BME280;70631;50.436;7.826;2023-08-30T12:00:10;98193.50;;;27.28;36.79
81155;BME280;70631;50.436;7.826;2023-08-30T12:02:36;98187.75;;;27.39;36.82
81155;BME280;70631;50.436;7.826;2023-08-30T12:05:01;98189.41;;;27.35;36.41
81155;BME280;70631;50.436;7.826;2023-08-30T12:07:26;98189.13;;;27.37;36.69
81155;BME280;70631;50.436;7.826;2023-08-30T12:09:52;98185.25;;;27.48;37.01
81155;BME280;70631;50.436;7.826;2023-08-30T12:12:18;98188.53;;;27.60;36.80
81155;BME280;70631;50.436;7.826;2023-08-30T12:14:43;98193.72;;;27.52;37.11
81155;BME280;70631;50.436;7.826;2023-08-30T12:17:09;98187.47;;;27.41;37.01
81155;BME280;70631;50.436;7.826;2023-08-30T12:19:37;98174.41;;;27.18;37.40
81155;BME280;70631;50.436;7.826;2023-08-30T12:22:08;98179.56;;;26.84;36.66
81155;BME280;70631;50.436;7.826;2023-08-30T12:24:43;98174.59;;;26.30;37.28
81155;BME280;70631;50.436;7.826;2023-08-30T12:27:09;98175.53;;;25.83;38.05
81155;BME280;70631;50.436;7.826;2023-08-30T12:29:34;98177.53;;;25.50;39.48
81155;BME280;70631;50.436;7.826;2023-08-30T12:31:59;98181.25;;;25.34;40.14
81155;BME280;70631;50.436;7.826;2023-08-30T12:34:25;98178.19;;;25.20;40.46
81155;BME280;70631;50.436;7.826;2023-08-30T12:36:50;98176.00;;;25.22;41.23
81155;BME280;70631;50.436;7.826;2023-08-30T12:39:15;98168.09;;;25.21;41.82
81155;BME280;70631;50.436;7.826;2023-08-30T12:41:41;98166.38;;;25.57;41.66
81155;BME280;70631;50.436;7.826;2023-08-30T12:44:08;98155.38;;;25.99;40.90
81155;BME280;70631;50.436;7.826;2023-08-30T12:46:33;98159.06;;;26.40;39.66
81155;BME280;70631;50.436;7.826;2023-08-30T12:48:58;98156.91;;;26.73;38.97
81155;BME280;70631;50.436;7.826;2023-08-30T12:51:24;98156.34;;;26.86;38.89
81155;BME280;70631;50.436;7.826;2023-08-30T12:53:49;98158.28;;;27.01;38.20
81155;BME280;70631;50.436;7.826;2023-08-30T12:56:14;98152.50;;;26.97;37.67
81155;BME280;70631;50.436;7.826;2023-08-30T12:58:39;98154.72;;;26.70;38.69